Time;durP1;ratioP1;P1;durP2;ratioP2;P2;SDS_P1;SDS_P2;PMS_P1;PMS_P2;Temp;Humidity;BMP_temperature;BMP_pressure;BME280_temperature;BME280_humidity;BME280_pressure;Samples;Min_cycle;Max_cycle;Signal;HPM_P1;HPM_P2
2021/07/23 00:02:04;;;;;;;15.00;10.93;;;;;;;16.59;86.00;96096.06;4993260;28;20505;-79
2021/07/23 00:04:29;;;;;;;14.40;10.20;;;;;;;16.57;86.17;96100.56;4993792;28;20422;-79
2021/07/23 00:06:54;;;;;;;13.73;10.02;;;;;;;16.60;86.35;96095.09;4998280;28;20472;-79
2021/07/23 00:09:21;;;;;;;12.90;10.93;;;;;;;16.60;87.03;96097.72;4997945;28;21012;-79
2021/07/23 00:11:46;;;;;;;11.60;10.38;;;;;;;16.61;87.81;96095.91;4997914;28;20943;-80
2021/07/23 00:14:12;;;;;;;14.63;10.50;;;;;;;16.79;84.04;96091.00;4994889;28;20442;-79
2021/07/23 00:16:37;;;;;;;16.40;11.07;;;;;;;16.49;85.53;96092.53;4993214;28;20477;-79
2021/07/23 00:19:03;;;;;;;13.97;11.20;;;;;;;16.12;88.58;96085.03;5003542;28;20419;-79
2021/07/23 00:21:29;;;;;;;16.77;11.98;;;;;;;16.17;89.30;96089.91;5011952;28;20421;-79
2021/07/23 00:23:54;;;;;;;14.23;9.90;;;;;;;16.28;86.04;96087.25;5011884;28;20760;-79
2021/07/23 00:26:21;;;;;;;13.07;10.83;;;;;;;16.42;83.56;96086.13;5012471;28;20428;-79
2021/07/23 00:28:47;;;;;;;14.50;11.13;;;;;;;16.35;84.02;96079.72;5013152;28;20427;-80
2021/07/23 00:31:12;;;;;;;15.50;10.50;;;;;;;16.13;85.25;96088.47;5012648;28;20416;-78
2021/07/23 00:33:37;;;;;;;11.65;10.40;;;;;;;16.07;85.92;96088.97;5012661;28;20910;-78
2021/07/23 00:36:04;;;;;;;14.13;11.13;;;;;;;16.07;85.57;96079.34;5012379;28;20906;-80
2021/07/23 00:38:29;;;;;;;11.65;10.43;;;;;;;16.03;86.30;96079.72;5012705;28;20471;-79
2021/07/23 00:40:54;;;;;;;18.08;11.93;;;;;;;15.66;90.54;96074.78;5012499;28;20429;-78
2021/07/23 00:43:21;;;;;;;19.27;12.07;;;;;;;15.70;91.46;96074.41;5011210;28;20428;-79
2021/07/23 00:45:47;;;;;;;10.88;9.77;;;;;;;16.02;85.30;96070.22;5011010;28;20429;-79
2021/07/23 00:48:14;;;;;;;10.63;9.55;;;;;;;16.01;84.63;96069.38;5012396;28;20420;-79
2021/07/23 00:50:40;;;;;;;12.47;9.43;;;;;;;15.94;83.83;96069.06;5012518;28;20826;-79
2021/07/23 00:53:05;;;;;;;14.57;10.48;;;;;;;15.81;85.69;96067.53;5012443;28;20427;-79
2021/07/23 00:55:31;;;;;;;15.35;11.70;;;;;;;15.58;88.06;96062.31;5011986;28;20428;-78
2021/07/23 00:57:57;;;;;;;15.13;11.80;;;;;;;15.64;88.50;96074.84;5011652;28;20917;-78
2021/07/23 01:00:25;;;;;;;16.53;11.20;;;;;;;15.70;88.80;96066.59;5012446;28;20413;-79
2021/07/23 01:02:52;;;;;;;14.95;10.50;;;;;;;15.84;86.96;96064.69;5010723;28;20428;-78
2021/07/23 01:05:18;;;;;;;11.95;10.00;;;;;;;15.83;87.08;96066.44;5011735;28;20424;-79
2021/07/23 01:07:44;;;;;;;13.07;10.50;;;;;;;15.73;88.85;96062.91;5010596;28;20428;-78
2021/07/23 01:10:10;;;;;;;15.60;11.55;;;;;;;15.75;88.69;96063.59;5012272;28;20444;-79
2021/07/23 01:12:36;;;;;;;15.50;10.63;;;;;;;15.77;88.30;96061.72;5012019;28;20455;-79
2021/07/23 01:15:02;;;;;;;14.10;10.85;;;;;;;15.83;88.93;96060.38;5015800;28;20424;-79
2021/07/23 01:17:29;;;;;;;13.32;10.98;;;;;;;15.85;87.23;96061.13;5016160;28;20412;-79
2021/07/23 01:20:00;;;;;;;11.98;9.75;;;;;;;15.89;86.26;96059.91;5016227;28;20416;-79
2021/07/23 01:22:27;;;;;;;10.77;9.68;;;;;;;15.73;87.49;96049.84;4997643;28;20414;-78
2021/07/23 01:24:55;;;;;;;16.58;9.57;;;;;;;15.70;86.81;96056.16;4996561;28;20915;-78
2021/07/23 01:27:20;;;;;;;12.25;10.20;;;;;;;15.61;87.38;96045.53;4995425;28;20410;-79
2021/07/23 01:29:46;;;;;;;10.25;9.18;;;;;;;15.60;87.80;96049.13;4995351;28;20425;-79
2021/07/23 01:32:11;;;;;;;13.07;10.32;;;;;;;15.61;87.94;96051.63;5010899;28;20750;-79
2021/07/23 01:34:38;;;;;;;13.53;10.47;;;;;;;15.61;87.99;96051.63;5014227;28;20490;-78
2021/07/23 01:37:03;;;;;;;17.43;10.77;;;;;;;15.58;88.60;96051.03;5015502;28;20421;-79
2021/07/23 01:39:32;;;;;;;13.43;10.23;;;;;;;15.49;89.73;96047.34;5015897;28;20507;-79
2021/07/23 01:41:59;;;;;;;11.13;9.90;;;;;;;15.57;89.17;96049.34;5015534;28;20424;-79
2021/07/23 01:44:24;;;;;;;12.75;10.15;;;;;;;15.66;88.24;96052.13;5014244;28;20428;-78
2021/07/23 01:46:50;;;;;;;14.70;9.80;;;;;;;15.60;85.82;96054.34;5013729;28;20435;-78
2021/07/23 01:49:15;;;;;;;11.25;9.48;;;;;;;15.40;88.35;96051.50;5013187;28;20467;-78
2021/07/23 01:51:41;;;;;;;10.07;8.90;;;;;;;15.39;88.42;96041.19;5015533;28;20431;-78
2021/07/23 01:54:06;;;;;;;12.43;9.93;;;;;;;15.46;87.21;96043.22;5015123;28;20412;-78
2021/07/23 01:56:31;;;;;;;11.40;9.93;;;;;;;15.48;88.16;96043.09;5014945;28;20539;-78
2021/07/23 01:58:58;;;;;;;14.37;10.40;;;;;;;15.42;89.46;96038.31;5019371;23;20441;-77
2021/07/23 02:01:24;;;;;;;14.02;11.05;;;;;;;15.39;89.62;96046.41;4989365;28;20431;-77
2021/07/23 02:03:49;;;;;;;14.07;11.60;;;;;;;15.36;91.98;96037.03;4989749;28;20546;-77
2021/07/23 02:06:15;;;;;;;15.17;12.20;;;;;;;15.31;94.19;96038.34;4994001;28;20860;-75
2021/07/23 02:08:41;;;;;;;14.60;11.63;;;;;;;15.49;91.76;96039.50;4994532;28;20422;-75
2021/07/23 02:11:06;;;;;;;13.60;10.85;;;;;;;15.53;91.51;96035.72;4994585;28;20749;-75
2021/07/23 02:13:31;;;;;;;13.80;10.83;;;;;;;15.49;92.10;96039.50;4993100;28;20422;-75
2021/07/23 02:16:02;;;;;;;12.60;10.60;;;;;;;15.41;91.73;96034.91;4993979;28;20433;-75
2021/07/23 02:18:27;;;;;;;13.48;11.40;;;;;;;15.44;89.33;96031.22;4993515;28;20799;-75
2021/07/23 02:20:53;;;;;;;13.52;11.23;;;;;;;15.33;90.58;96034.66;4994178;28;20509;-75
2021/07/23 02:23:18;;;;;;;16.50;10.57;;;;;;;15.31;92.29;96030.50;4994090;28;20827;-75
2021/07/23 02:25:43;;;;;;;14.07;11.40;;;;;;;15.32;92.39;96037.41;4992761;28;20414;-75
2021/07/23 02:28:09;;;;;;;15.35;11.10;;;;;;;15.26;90.99;96028.25;4994042;28;20414;-75
2021/07/23 02:30:34;;;;;;;14.80;10.87;;;;;;;15.27;91.85;96026.47;4993936;28;20454;-75
2021/07/23 02:33:01;;;;;;;13.83;10.90;;;;;;;15.28;92.37;96022.91;4992653;28;20477;-75
2021/07/23 02:35:26;;;;;;;13.37;10.50;;;;;;;15.33;91.90;96029.44;4993642;28;20434;-75
2021/07/23 02:37:52;;;;;;;12.27;10.33;;;;;;;15.49;88.09;96026.47;4993862;28;20421;-75
2021/07/23 02:40:17;;;;;;;13.63;10.37;;;;;;;15.45;87.73;96025.88;4992698;28;20844;-75
2021/07/23 02:42:43;;;;;;;12.02;9.80;;;;;;;15.10;89.04;96018.19;4993816;28;20512;-75
2021/07/23 02:45:09;;;;;;;10.10;9.07;;;;;;;14.95;89.56;96022.78;4993506;28;20880;-75
2021/07/23 02:47:34;;;;;;;12.35;9.48;;;;;;;15.06;86.73;96021.16;4992273;28;20430;-75
2021/07/23 02:50:01;;;;;;;10.65;9.35;;;;;;;15.08;87.02;96019.25;5010924;28;20778;-75
2021/07/23 02:52:27;;;;;;;17.88;10.27;;;;;;;15.00;87.31;96014.59;5013125;28;20918;-75
2021/07/23 02:54:52;;;;;;;14.10;10.07;;;;;;;14.89;87.22;96009.38;5013088;28;20519;-75
2021/07/23 02:57:17;;;;;;;10.93;9.27;;;;;;;14.64;88.60;96002.56;5011669;28;20903;-75
2021/07/23 02:59:43;;;;;;;12.30;8.77;;;;;;;14.49;90.03;96007.13;5012928;28;20420;-75
2021/07/23 03:02:08;;;;;;;12.10;9.57;;;;;;;14.59;86.91;96007.31;5012952;28;20447;-74
2021/07/23 03:04:33;;;;;;;12.63;8.53;;;;;;;14.48;88.64;96008.09;5012797;28;20413;-75
2021/07/23 03:07:00;;;;;;;11.40;9.50;;;;;;;14.58;87.09;95998.66;5012594;28;20838;-74
2021/07/23 03:09:26;;;;;;;12.38;9.73;;;;;;;14.57;87.75;95999.59;5011587;28;20960;-75
2021/07/23 03:11:51;;;;;;;14.60;9.73;;;;;;;14.45;89.48;96000.50;5011602;28;20437;-75
2021/07/23 03:14:16;;;;;;;12.40;9.95;;;;;;;14.32;90.76;95994.53;5012907;28;20971;-75
2021/07/23 03:16:42;;;;;;;15.00;10.90;;;;;;;14.44;88.97;95991.03;5012370;28;20419;-75
2021/07/23 03:19:07;;;;;;;18.67;12.33;;;;;;;14.36;90.14;95993.38;5012230;28;20420;-75
2021/07/23 03:21:32;;;;;;;13.60;11.60;;;;;;;14.32;90.83;95989.34;5012617;28;20417;-75
2021/07/23 03:23:59;;;;;;;20.63;12.80;;;;;;;14.29;91.44;95987.78;5011532;28;20431;-75
2021/07/23 03:26:24;;;;;;;16.20;12.77;;;;;;;14.18;92.94;95992.94;5010954;28;20425;-75
2021/07/23 03:28:50;;;;;;;17.23;12.43;;;;;;;14.10;94.87;95992.69;5012464;28;20420;-75
2021/07/23 03:31:15;;;;;;;18.10;12.83;;;;;;;14.19;93.79;95995.44;5011398;28;20424;-75
2021/07/23 03:33:41;;;;;;;15.15;13.00;;;;;;;14.19;93.59;95990.22;5011061;28;20430;-75
2021/07/23 03:36:07;;;;;;;14.70;12.50;;;;;;;14.14;93.88;95989.75;5010588;28;20926;-75
2021/07/23 03:38:33;;;;;;;16.52;12.85;;;;;;;14.13;93.70;95987.25;5012298;28;20504;-75
2021/07/23 03:40:59;;;;;;;16.57;11.47;;;;;;;14.14;94.18;95989.75;5012254;28;20421;-75
2021/07/23 03:43:25;;;;;;;12.55;11.20;;;;;;;14.16;94.80;95985.22;5012173;28;20483;-75
2021/07/23 03:45:50;;;;;;;14.48;11.48;;;;;;;14.17;94.52;95984.31;5010496;28;20464;-75
2021/07/23 03:48:16;;;;;;;12.57;10.83;;;;;;;14.31;91.41;95993.69;5008608;28;20429;-75
2021/07/23 03:50:41;;;;;;;14.87;10.70;;;;;;;14.37;91.12;95982.00;4992577;28;20422;-75
2021/07/23 03:53:07;;;;;;;13.20;10.70;;;;;;;14.38;89.36;95987.09;4992501;28;20911;-75
2021/07/23 03:55:32;;;;;;;15.23;11.13;;;;;;;14.25;90.49;95991.56;4991004;28;20422;-75
2021/07/23 03:57:59;;;;;;;15.38;10.68;;;;;;;14.06;91.95;95997.28;4990996;28;20472;-75
2021/07/23 04:00:24;;;;;;;13.70;10.15;;;;;;;13.98;92.62;95997.84;4992411;28;20422;-75
2021/07/23 04:02:50;;;;;;;13.93;10.70;;;;;;;13.91;92.82;95995.81;4992243;28;20421;-75
2021/07/23 04:05:15;;;;;;;12.07;10.63;;;;;;;13.94;92.55;95998.16;4992149;28;20768;-75
2021/07/23 04:07:42;;;;;;;13.47;12.03;;;;;;;13.87;94.39;96004.75;4992406;28;20421;-75
2021/07/23 04:10:08;;;;;;;14.07;10.70;;;;;;;13.91;94.28;95996.63;4990708;28;20827;-74
2021/07/23 04:12:34;;;;;;;14.52;11.95;;;;;;;14.00;95.04;95993.34;4990918;28;20449;-74
2021/07/23 04:15:04;;;;;;;16.60;11.20;;;;;;;14.04;94.86;96000.00;4992089;28;20414;-74
2021/07/23 04:17:29;;;;;;;14.98;10.48;;;;;;;14.06;93.78;95999.91;4991864;28;20418;-74
2021/07/23 04:19:55;;;;;;;11.37;9.97;;;;;;;13.97;93.47;96003.16;5007198;28;20423;-75
2021/07/23 04:22:20;;;;;;;12.95;10.27;;;;;;;13.97;93.63;96010.97;4992366;28;20864;-75
2021/07/23 04:24:45;;;;;;;13.63;11.40;;;;;;;14.06;94.06;96004.28;4992061;28;20418;-75
2021/07/23 04:27:13;;;;;;;14.40;11.37;;;;;;;14.10;96.51;96001.31;4991691;28;20457;-74
2021/07/23 04:29:38;;;;;;;14.20;11.38;;;;;;;14.14;97.27;95997.56;4991728;28;20422;-75
2021/07/23 04:32:06;;;;;;;14.23;11.40;;;;;;;14.22;97.34;96005.63;4991794;28;20509;-73
2021/07/23 04:34:31;;;;;;;15.32;12.30;;;;;;;14.27;97.09;96011.31;4990471;28;20469;-74
2021/07/23 04:37:00;;;;;;;19.67;12.47;;;;;;;14.36;97.65;96001.19;4991540;28;20454;-76
2021/07/23 04:39:26;;;;;;;13.18;11.48;;;;;;;14.42;97.75;95998.94;4991706;28;20418;-76
2021/07/23 04:41:51;;;;;;;15.57;11.70;;;;;;;14.43;97.05;96008.44;4990284;28;20426;-75
2021/07/23 04:44:16;;;;;;;14.07;11.80;;;;;;;14.47;97.30;96004.66;4989425;28;20427;-75
2021/07/23 04:46:42;;;;;;;12.33;10.27;;;;;;;14.71;94.65;96004.59;4990041;28;20423;-74
2021/07/23 04:49:08;;;;;;;12.13;9.73;;;;;;;14.72;93.65;96005.44;4989373;28;20788;-75
2021/07/23 04:51:34;;;;;;;11.70;9.20;;;;;;;14.75;93.30;96006.03;4991760;28;20485;-74
2021/07/23 04:53:59;;;;;;;11.07;9.83;;;;;;;14.83;93.40;96002.88;4991338;28;20410;-74
2021/07/23 04:56:25;;;;;;;11.13;9.27;;;;;;;14.89;93.70;96007.59;4991242;28;20931;-74
2021/07/23 04:58:51;;;;;;;15.25;10.30;;;;;;;14.91;93.74;96004.91;4991365;28;20429;-73
2021/07/23 05:01:17;;;;;;;16.60;10.77;;;;;;;14.90;94.16;96009.25;4991615;28;20425;-73
2021/07/23 05:03:43;;;;;;;14.57;11.18;;;;;;;14.95;94.66;96001.94;4991455;28;20426;-73
2021/07/23 05:06:10;;;;;;;12.32;10.95;;;;;;;15.01;94.99;96011.03;4991149;28;20526;-73
2021/07/23 05:08:36;;;;;;;13.87;10.67;;;;;;;15.18;96.09;96002.75;4990189;28;20451;-73
2021/07/23 05:11:03;;;;;;;13.05;11.48;;;;;;;15.32;95.96;96004.31;4991484;28;20848;-73
2021/07/23 05:13:30;;;;;;;14.85;11.18;;;;;;;15.35;95.11;95998.84;4991436;28;20410;-73
2021/07/23 05:15:56;;;;;;;13.55;11.07;;;;;;;15.44;94.97;96005.13;4989974;28;20429;-73
2021/07/23 05:18:22;;;;;;;18.55;12.27;;;;;;;15.47;95.60;95997.88;4989736;28;20426;-73
2021/07/23 05:20:47;;;;;;;15.10;12.33;;;;;;;15.53;96.65;96001.78;4991307;28;20974;-74
2021/07/23 05:23:14;;;;;;;24.10;14.13;;;;;;;15.66;95.53;96001.69;4991314;28;20493;-74
2021/07/23 05:25:40;;;;;;;14.93;13.20;;;;;;;15.76;96.13;96000.00;4989830;28;20423;-74
2021/07/23 05:28:05;;;;;;;16.00;12.87;;;;;;;15.83;94.97;96002.94;4991249;28;20425;-74
2021/07/23 05:30:30;;;;;;;16.90;13.20;;;;;;;15.88;94.64;96000.81;4991286;28;20422;-73
2021/07/23 05:32:56;;;;;;;15.43;13.23;;;;;;;15.92;94.76;96004.81;4991219;28;20517;-74
2021/07/23 05:35:21;;;;;;;16.97;12.80;;;;;;;16.03;94.77;96010.00;4991095;28;20414;-72
2021/07/23 05:37:46;;;;;;;16.95;12.95;;;;;;;16.03;93.76;96006.56;4990136;28;20869;-73
2021/07/23 05:40:16;;;;;;;15.93;12.30;;;;;;;15.92;90.24;96004.81;4991127;28;20421;-75
2021/07/23 05:42:41;;;;;;;20.70;14.23;;;;;;;15.79;90.03;96004.13;4990999;28;20422;-74
2021/07/23 05:45:07;;;;;;;18.40;12.55;;;;;;;15.82;90.61;96003.91;4991000;28;20457;-74
2021/07/23 05:47:33;;;;;;;16.70;12.45;;;;;;;15.94;89.91;96008.13;5006982;28;21106;-74
2021/07/23 05:49:58;;;;;;;16.60;11.87;;;;;;;16.19;89.46;96002.56;4992885;28;20411;-74
2021/07/23 05:52:23;;;;;;;16.67;11.90;;;;;;;16.23;87.68;96003.16;4990950;28;20418;-74
2021/07/23 05:54:49;;;;;;;15.50;11.53;;;;;;;16.16;87.40;96000.22;4989691;28;20430;-74
2021/07/23 05:57:17;;;;;;;15.73;11.67;;;;;;;16.35;87.78;96002.19;4989346;28;20859;-73
2021/07/23 05:59:42;;;;;;;12.93;11.52;;;;;;;16.61;87.21;96000.03;4990749;28;20783;-73
2021/07/23 06:02:08;;;;;;;15.43;11.70;;;;;;;16.81;85.87;95998.38;4994630;28;20607;-73
2021/07/23 06:04:34;;;;;;;15.23;12.37;;;;;;;16.69;86.05;95997.59;4994625;28;20497;-74
2021/07/23 06:07:03;;;;;;;14.13;12.07;;;;;;;16.72;85.16;96001.72;4992961;28;20513;-74
2021/07/23 06:09:28;;;;;;;17.92;12.25;;;;;;;16.63;85.54;95997.25;4993219;28;20414;-74
2021/07/23 06:11:54;;;;;;;21.45;12.32;;;;;;;16.69;85.09;96002.81;4994448;28;20911;-74
2021/07/23 06:14:20;;;;;;;17.17;12.07;;;;;;;16.95;84.53;95993.78;4993269;28;20453;-73
2021/07/23 06:16:46;;;;;;;17.60;11.90;;;;;;;16.99;84.19;95995.16;4994094;28;20449;-73
2021/07/23 06:19:11;;;;;;;17.50;13.23;;;;;;;16.97;84.49;95994.47;5005154;28;20420;-75
2021/07/23 06:21:36;;;;;;;20.27;12.82;;;;;;;16.95;84.24;95994.59;5012689;28;20431;-74
2021/07/23 06:24:02;;;;;;;16.83;12.63;;;;;;;17.06;84.88;95993.69;5012688;28;21004;-74
2021/07/23 06:26:28;;;;;;;15.70;12.43;;;;;;;17.31;83.89;95988.00;5013478;28;20924;-74
2021/07/23 06:28:53;;;;;;;17.83;11.80;;;;;;;17.64;83.56;95994.72;4984651;28;20419;-74
2021/07/23 06:31:20;;;;;;;18.40;12.53;;;;;;;17.98;80.75;95989.13;4974743;28;20502;-74
2021/07/23 06:33:45;;;;;;;18.80;11.75;;;;;;;18.16;80.13;95988.47;4973764;28;20821;-74
2021/07/23 06:36:10;;;;;;;18.67;12.23;;;;;;;18.22;79.24;95990.56;4974494;28;20508;-69
2021/07/23 06:38:36;;;;;;;16.00;12.53;;;;;;;18.20;79.37;95993.28;4974565;28;20420;-76
2021/07/23 06:41:04;;;;;;;14.90;11.23;;;;;;;18.53;80.03;95991.22;4973297;28;20996;-75
2021/07/23 06:43:29;;;;;;;14.48;11.57;;;;;;;18.93;78.99;95980.53;4974507;28;20420;-73
2021/07/23 06:45:56;;;;;;;20.42;12.73;;;;;;;19.23;77.72;95991.78;4974347;28;20514;-75
2021/07/23 06:48:23;;;;;;;15.03;11.30;;;;;;;19.52;77.04;95986.41;4978206;28;20461;-75
2021/07/23 06:50:51;;;;;;;14.18;11.90;;;;;;;19.74;75.03;95991.28;4993863;28;20493;-75
2021/07/23 06:53:17;;;;;;;16.35;12.32;;;;;;;19.84;71.73;95991.22;4992371;28;20426;-73
2021/07/23 06:55:43;;;;;;;18.13;11.83;;;;;;;20.09;73.36;95988.84;4993441;28;20421;-74
2021/07/23 06:58:09;;;;;;;16.17;11.97;;;;;;;20.38;72.67;95991.25;4992461;28;20426;-74
2021/07/23 07:00:34;;;;;;;15.17;12.03;;;;;;;20.89;72.95;95985.25;4993917;28;20757;-72
2021/07/23 07:03:00;;;;;;;19.63;12.23;;;;;;;21.17;72.83;95990.34;4993595;28;20919;-73
2021/07/23 07:05:28;;;;;;;17.83;11.43;;;;;;;21.21;67.71;95989.03;4993472;28;20458;-73
2021/07/23 07:07:53;;;;;;;15.57;10.73;;;;;;;21.10;65.09;95989.31;4991245;28;20431;-73
2021/07/23 07:10:18;;;;;;;17.17;12.00;;;;;;;20.82;65.05;95986.84;4982192;28;20423;-75
2021/07/23 07:12:44;;;;;;;11.97;10.67;;;;;;;21.06;65.76;95987.97;4989072;28;20418;-74
2021/07/23 07:15:10;;;;;;;15.37;10.77;;;;;;;20.96;64.94;95985.47;4993474;28;20912;-73
2021/07/23 07:17:35;;;;;;;18.40;11.55;;;;;;;20.98;64.19;95989.56;4993475;28;20418;-73
2021/07/23 07:20:01;;;;;;;14.23;10.00;;;;;;;21.14;65.51;95982.78;5010915;28;20950;-75
2021/07/23 07:22:28;;;;;;;15.10;10.43;;;;;;;21.62;69.23;95984.03;4994690;28;20446;-75
2021/07/23 07:24:53;;;;;;;14.75;11.13;;;;;;;22.09;69.21;95980.81;4993345;28;20476;-75
2021/07/23 07:27:19;;;;;;;15.82;11.07;;;;;;;22.49;64.68;95976.63;4993306;28;20410;-75
2021/07/23 07:29:45;;;;;;;14.10;11.05;;;;;;;22.68;61.29;95974.44;4992498;28;20906;-74
2021/07/23 07:32:10;;;;;;;13.57;10.40;;;;;;;22.67;63.24;95977.28;4984116;28;20428;-75
2021/07/23 07:34:35;;;;;;;11.77;10.57;;;;;;;22.68;60.20;95971.00;4977883;28;20425;-74
2021/07/23 07:37:01;;;;;;;14.45;10.63;;;;;;;23.00;63.75;95967.53;4982759;28;20417;-73
2021/07/23 07:39:28;;;;;;;18.60;10.73;;;;;;;23.01;62.89;95974.44;4982563;28;20426;-74
2021/07/23 07:41:53;;;;;;;14.90;10.90;;;;;;;23.18;57.76;95970.78;4983660;28;20498;-74
2021/07/23 07:44:19;;;;;;;16.03;10.77;;;;;;;22.50;59.88;95970.34;4993116;28;20648;-75
2021/07/23 07:46:44;;;;;;;18.73;10.77;;;;;;;23.01;59.58;95971.81;4992669;28;20484;-73
2021/07/23 07:49:09;;;;;;;13.30;9.93;;;;;;;23.15;58.39;95967.66;4992496;28;21109;-74
2021/07/23 07:51:35;;;;;;;13.30;10.20;;;;;;;23.23;58.13;95964.97;4991878;28;20427;-74
2021/07/23 07:54:00;;;;;;;15.60;10.27;;;;;;;23.17;62.70;95963.00;4993165;28;20411;-73
2021/07/23 07:56:27;;;;;;;21.37;12.47;;;;;;;23.47;60.15;95966.69;4992547;28;20422;-74
2021/07/23 07:58:52;;;;;;;16.23;10.52;;;;;;;23.55;58.13;95963.22;4992840;28;20513;-73
2021/07/23 08:01:18;;;;;;;25.23;14.60;;;;;;;23.70;59.59;95956.25;4991209;28;20570;-74
2021/07/23 08:03:43;;;;;;;14.23;10.70;;;;;;;23.87;58.41;95959.59;4992474;28;20414;-73
2021/07/23 08:06:34;;;;;;;14.70;10.17;;;;;;;24.11;58.35;95966.59;4992217;28;20426;-74
2021/07/23 08:09:08;;;;;;;11.93;9.93;;;;;;;24.46;56.97;95964.38;4991410;28;20430;-74
2021/07/23 08:11:35;;;;;;;11.88;9.93;;;;;;;24.58;56.88;95955.84;4992719;28;20497;-73
2021/07/23 08:14:01;;;;;;;14.50;9.75;;;;;;;24.82;52.41;95952.13;4992593;28;20493;-73
2021/07/23 08:16:27;;;;;;;14.27;9.53;;;;;;;24.56;51.62;95954.34;4989978;28;20518;-73
2021/07/23 08:18:52;;;;;;;11.43;9.30;;;;;;;24.73;51.11;95955.03;4980948;28;20442;-74
2021/07/23 08:21:18;;;;;;;12.05;9.38;;;;;;;24.90;52.39;95951.22;4992406;28;20426;-74
2021/07/23 08:23:43;;;;;;;12.47;9.37;;;;;;;24.79;51.85;95943.72;4991585;28;20415;-74
2021/07/23 08:26:09;;;;;;;14.77;8.70;;;;;;;24.86;49.76;95953.41;4992035;28;20947;-74
2021/07/23 08:28:36;;;;;;;12.23;9.37;;;;;;;24.64;53.03;95946.34;4992502;28;20476;-76
2021/07/23 08:31:01;;;;;;;12.18;9.05;;;;;;;24.53;50.13;95954.72;4991276;28;20458;-75
2021/07/23 08:33:28;;;;;;;11.93;8.90;;;;;;;24.54;52.42;95953.69;4992252;28;20840;-75
2021/07/23 08:35:54;;;;;;;12.63;9.40;;;;;;;24.71;49.44;95939.31;4992165;28;20502;-75
2021/07/23 08:38:19;;;;;;;20.30;11.60;;;;;;;24.68;51.44;95942.31;4992376;28;20414;-74
2021/07/23 08:40:45;;;;;;;12.88;9.13;;;;;;;24.80;49.42;95945.34;4991214;28;20871;-75
2021/07/23 08:43:11;;;;;;;13.43;8.73;;;;;;;24.34;47.47;95946.22;4990857;28;20422;-75
2021/07/23 08:45:38;;;;;;;57.73;21.63;;;;;;;24.46;53.28;95949.31;4991801;28;20438;-76
2021/07/23 08:48:04;;;;;;;20.77;12.20;;;;;;;24.71;50.81;95941.97;4990545;28;20432;-76
2021/07/23 08:50:30;;;;;;;26.67;14.02;;;;;;;24.84;50.94;95946.63;4991036;28;20915;-76
2021/07/23 08:52:55;;;;;;;16.10;9.35;;;;;;;24.78;53.55;95942.09;4990731;28;20441;-75
2021/07/23 08:55:22;;;;;;;21.47;12.97;;;;;;;25.09;51.09;95947.22;4990586;28;20956;-75
2021/07/23 08:57:48;;;;;;;10.77;9.35;;;;;;;25.36;49.56;95948.44;4991928;28;20414;-74
2021/07/23 09:00:16;;;;;;;14.60;9.45;;;;;;;25.44;50.12;95943.06;4991735;28;20430;-75
2021/07/23 09:02:53;;;;;;;14.10;10.40;;;;;;;25.58;52.03;95949.31;4991886;28;20426;-75
2021/07/23 09:05:19;;;;;;;13.60;9.25;;;;;;;25.57;47.68;95948.50;4990192;28;20418;-75
2021/07/23 09:07:45;;;;;;;13.13;8.82;;;;;;;25.76;46.89;95947.09;4991850;28;20415;-75
2021/07/23 09:10:12;;;;;;;16.30;9.00;;;;;;;25.73;49.93;95950.13;4992012;28;20422;-75
2021/07/23 09:12:45;;;;;;;21.58;11.25;;;;;;;25.69;47.54;95945.38;4991953;28;20983;-75
2021/07/23 09:15:25;;;;;;;20.02;9.77;;;;;;;25.57;47.45;95943.19;4991618;28;20472;-75
2021/07/23 09:17:52;;;;;;;27.05;13.15;;;;;;;25.65;49.42;95944.91;4991867;28;20501;-76
2021/07/23 09:20:27;;;;;;;12.05;9.05;;;;;;;25.77;47.96;95939.94;4990616;28;20434;-75
2021/07/23 09:22:55;;;;;;;14.47;9.47;;;;;;;25.83;47.39;95936.59;4991968;28;20561;-76
2021/07/23 09:25:43;;;;;;;13.50;9.52;;;;;;;25.90;48.91;95934.03;4991476;28;20813;-75
2021/07/23 09:28:24;;;;;;;13.20;9.00;;;;;;;25.81;47.63;95935.97;4991795;28;20636;-75
2021/07/23 09:30:50;;;;;;;23.10;11.15;;;;;;;25.85;47.25;95936.44;4990272;28;20450;-75
2021/07/23 09:33:27;;;;;;;30.67;16.00;;;;;;;26.04;51.87;95939.28;4990452;28;20487;-75
2021/07/23 09:35:55;;;;;;;16.73;10.82;;;;;;;26.21;47.65;95931.88;4993069;28;20450;-74
2021/07/23 09:38:21;;;;;;;13.57;9.93;;;;;;;25.43;46.96;95930.78;4995205;28;20509;-75
2021/07/23 09:40:48;;;;;;;13.98;10.10;;;;;;;25.32;47.61;95926.75;4995227;28;20426;-75
2021/07/23 09:43:28;;;;;;;19.63;10.70;;;;;;;26.13;52.76;95931.19;4995113;28;20430;-75
2021/07/23 09:45:53;;;;;;;17.30;10.60;;;;;;;26.28;47.18;95919.50;4993603;28;20461;-74
2021/07/23 09:48:19;;;;;;;18.87;10.60;;;;;;;26.20;49.10;95919.63;4994744;28;20441;-74
2021/07/23 09:50:46;;;;;;;14.40;9.53;;;;;;;26.10;49.51;95918.28;4993787;28;20513;-74
2021/07/23 09:53:13;;;;;;;12.68;9.40;;;;;;;26.16;48.06;95926.31;4994946;28;20418;-74
2021/07/23 09:55:40;;;;;;;13.93;9.10;;;;;;;26.21;47.76;95917.78;4992994;28;20433;-73
2021/07/23 09:58:06;;;;;;;13.23;9.20;;;;;;;25.99;48.08;95915.16;4994607;28;20465;-73
2021/07/23 10:00:36;;;;;;;12.30;9.55;;;;;;;25.45;46.72;95920.00;4994841;28;20430;-73
2021/07/23 10:03:05;;;;;;;12.05;9.52;;;;;;;25.20;47.01;95912.34;4994997;28;20974;-73
2021/07/23 10:05:37;;;;;;;15.93;9.32;;;;;;;25.78;47.37;95910.63;4994306;28;20430;-74
2021/07/23 10:08:06;;;;;;;13.38;10.13;;;;;;;26.20;47.24;95901.03;4993263;28;20426;-73
2021/07/23 10:10:32;;;;;;;12.48;9.43;;;;;;;26.49;45.98;95900.09;4993400;28;20753;-74
2021/07/23 10:12:59;;;;;;;15.73;9.63;;;;;;;26.70;45.56;95901.09;4992999;28;20465;-73
2021/07/23 10:15:25;;;;;;;14.85;9.88;;;;;;;26.14;45.25;95893.84;5000380;28;20434;-73
2021/07/23 10:17:51;;;;;;;11.88;9.07;;;;;;;26.61;46.87;95892.41;4982517;28;20423;-73
2021/07/23 10:20:18;;;;;;;12.13;9.30;;;;;;;26.73;47.84;95885.56;4993432;28;20410;-73
2021/07/23 10:22:43;;;;;;;12.68;9.65;;;;;;;26.44;48.85;95883.91;4974791;28;20436;-74
2021/07/23 10:25:11;;;;;;;13.13;9.23;;;;;;;26.90;48.11;95882.59;4990776;28;20415;-74
2021/07/23 10:27:40;;;;;;;10.60;8.97;;;;;;;26.99;49.26;95884.91;4994245;28;20429;-75
2021/07/23 10:30:30;;;;;;;12.68;9.48;;;;;;;26.87;46.66;95883.81;4992607;28;20924;-73
2021/07/23 10:32:55;;;;;;;15.63;10.77;;;;;;;27.10;46.35;95878.22;4994164;28;20414;-73
2021/07/23 10:35:30;;;;;;;11.47;9.17;;;;;;;27.36;46.20;95874.06;4992697;28;20428;-73
2021/07/23 10:37:59;;;;;;;13.65;9.68;;;;;;;26.84;44.07;95867.44;4993972;28;20517;-74
2021/07/23 10:40:33;;;;;;;10.98;9.65;;;;;;;26.68;44.51;95869.38;4993802;28;20431;-73
2021/07/23 10:42:58;;;;;;;10.85;9.55;;;;;;;26.89;45.37;95865.84;4993372;28;20410;-73
2021/07/23 10:45:40;;;;;;;14.65;9.45;;;;;;;27.46;46.69;95866.53;4993179;28;20422;-73
2021/07/23 10:48:05;;;;;;;15.70;10.18;;;;;;;27.26;46.56;95861.97;4991808;28;20427;-73
2021/07/23 10:50:47;;;;;;;16.90;9.73;;;;;;;26.99;46.40;95862.81;4993636;28;20418;-73
2021/07/23 10:53:32;;;;;;;13.40;9.50;;;;;;;27.05;46.36;95855.91;4993524;28;20414;-73
2021/07/23 10:55:59;;;;;;;16.23;10.43;;;;;;;27.08;49.74;95850.22;4993205;28;20426;-73
2021/07/23 10:58:32;;;;;;;15.32;10.93;;;;;;;25.81;46.20;95848.44;4993383;28;20777;-73
2021/07/23 11:01:04;;;;;;;13.53;10.63;;;;;;;26.34;50.36;95842.75;4991742;28;20618;-73
2021/07/23 11:04:01;;;;;;;12.75;10.13;;;;;;;26.87;48.21;95843.13;4993478;28;20494;-73
2021/07/23 11:06:33;;;;;;;16.17;10.93;;;;;;;26.02;46.11;95832.47;4993475;28;20561;-73
2021/07/23 11:09:02;;;;;;;12.48;9.45;;;;;;;25.96;46.66;95825.31;4993439;28;20896;-72
2021/07/23 11:11:29;;;;;;;13.18;9.65;;;;;;;26.79;47.60;95829.00;4991886;28;20422;-73
2021/07/23 11:13:55;;;;;;;21.05;11.20;;;;;;;27.09;49.86;95823.41;4993451;28;20438;-73
2021/07/23 11:16:27;;;;;;;18.97;10.17;;;;;;;27.15;47.74;95820.00;4992832;28;20422;-73
2021/07/23 11:18:54;;;;;;;12.77;9.63;;;;;;;26.83;46.33;95821.44;4992788;28;20457;-73